sensor_id;sensor_type;location;lat;lon;timestamp;P1;durP1;ratioP1;P2;durP2;ratioP2
80163;SDS011;70071;55.130;61.268;2023-05-16T00:02:08;12.23;;;8.85;;
80163;SDS011;70071;55.130;61.268;2023-05-16T00:04:36;12.05;;;8.57;;
80163;SDS011;70071;55.130;61.268;2023-05-16T00:07:02;12.80;;;9.35;;
80163;SDS011;70071;55.130;61.268;2023-05-16T00:09:28;13.77;;;9.23;;
80163;SDS011;70071;55.130;61.268;2023-05-16T00:11:57;11.05;;;8.48;;
80163;SDS011;70071;55.130;61.268;2023-05-16T00:14:28;12.35;;;8.75;;
80163;SDS011;70071;55.130;61.268;2023-05-16T00:16:56;13.25;;;9.20;;
80163;SDS011;70071;55.130;61.268;2023-05-16T00:19:41;10.90;;;8.10;;
80163;SDS011;70071;55.130;61.268;2023-05-16T00:22:09;12.65;;;9.07;;
80163;SDS011;70071;55.130;61.268;2023-05-16T00:24:35;13.85;;;9.20;;
80163;SDS011;70071;55.130;61.268;2023-05-16T00:27:01;12.07;;;8.93;;
80163;SDS011;70071;55.130;61.268;2023-05-16T00:29:33;12.55;;;8.52;;
80163;SDS011;70071;55.130;61.268;2023-05-16T00:32:00;11.93;;;8.38;;
80163;SDS011;70071;55.130;61.268;2023-05-16T00:34:25;12.82;;;8.68;;
80163;SDS011;70071;55.130;61.268;2023-05-16T00:36:52;14.40;;;9.07;;
80163;SDS011;70071;55.130;61.268;2023-05-16T00:39:19;11.32;;;8.70;;
80163;SDS011;70071;55.130;61.268;2023-05-16T00:41:45;11.50;;;8.45;;
80163;SDS011;70071;55.130;61.268;2023-05-16T00:44:11;14.93;;;9.30;;
80163;SDS011;70071;55.130;61.268;2023-05-16T00:46:37;13.00;;;8.80;;
80163;SDS011;70071;55.130;61.268;2023-05-16T00:49:04;15.40;;;9.55;;
80163;SDS011;70071;55.130;61.268;2023-05-16T00:51:30;11.75;;;8.30;;
80163;SDS011;70071;55.130;61.268;2023-05-16T00:53:55;12.85;;;9.05;;
80163;SDS011;70071;55.130;61.268;2023-05-16T00:56:25;12.07;;;8.10;;
80163;SDS011;70071;55.130;61.268;2023-05-16T00:58:55;12.52;;;8.25;;
80163;SDS011;70071;55.130;61.268;2023-05-16T01:01:22;11.85;;;9.02;;
80163;SDS011;70071;55.130;61.268;2023-05-16T01:03:49;12.38;;;8.73;;
80163;SDS011;70071;55.130;61.268;2023-05-16T01:06:16;12.45;;;8.65;;
80163;SDS011;70071;55.130;61.268;2023-05-16T01:08:45;11.20;;;8.20;;
80163;SDS011;70071;55.130;61.268;2023-05-16T01:13:59;13.02;;;8.43;;
80163;SDS011;70071;55.130;61.268;2023-05-16T01:16:58;13.02;;;9.18;;
80163;SDS011;70071;55.130;61.268;2023-05-16T01:22:11;11.98;;;8.48;;
80163;SDS011;70071;55.130;61.268;2023-05-16T01:27:07;12.93;;;8.77;;
80163;SDS011;70071;55.130;61.268;2023-05-16T01:29:34;10.90;;;7.93;;
80163;SDS011;70071;55.130;61.268;2023-05-16T01:32:00;11.75;;;8.50;;
80163;SDS011;70071;55.130;61.268;2023-05-16T01:34:26;15.27;;;8.88;;
80163;SDS011;70071;55.130;61.268;2023-05-16T01:40:00;11.13;;;8.43;;
80163;SDS011;70071;55.130;61.268;2023-05-16T01:42:32;12.35;;;8.70;;
80163;SDS011;70071;55.130;61.268;2023-05-16T01:45:09;11.13;;;8.02;;
80163;SDS011;70071;55.130;61.268;2023-05-16T01:47:39;11.85;;;8.50;;
80163;SDS011;70071;55.130;61.268;2023-05-16T01:50:09;11.23;;;7.57;;
80163;SDS011;70071;55.130;61.268;2023-05-16T01:55:29;13.65;;;8.68;;
80163;SDS011;70071;55.130;61.268;2023-05-16T01:58:09;11.25;;;8.00;;
80163;SDS011;70071;55.130;61.268;2023-05-16T02:00:36;12.30;;;8.75;;
80163;SDS011;70071;55.130;61.268;2023-05-16T02:03:02;12.45;;;8.50;;
80163;SDS011;70071;55.130;61.268;2023-05-16T02:05:31;12.75;;;9.10;;
80163;SDS011;70071;55.130;61.268;2023-05-16T02:08:10;12.05;;;8.65;;
80163;SDS011;70071;55.130;61.268;2023-05-16T02:10:37;13.43;;;8.82;;
80163;SDS011;70071;55.130;61.268;2023-05-16T02:13:05;12.35;;;8.95;;
80163;SDS011;70071;55.130;61.268;2023-05-16T02:15:31;14.63;;;9.50;;
80163;SDS011;70071;55.130;61.268;2023-05-16T02:17:57;12.13;;;8.50;;
80163;SDS011;70071;55.130;61.268;2023-05-16T02:20:23;12.77;;;8.95;;
80163;SDS011;70071;55.130;61.268;2023-05-16T02:22:49;11.57;;;8.38;;
80163;SDS011;70071;55.130;61.268;2023-05-16T02:25:14;11.55;;;9.32;;
80163;SDS011;70071;55.130;61.268;2023-05-16T02:27:41;12.45;;;9.23;;
80163;SDS011;70071;55.130;61.268;2023-05-16T02:30:08;15.65;;;8.55;;
80163;SDS011;70071;55.130;61.268;2023-05-16T02:32:40;15.32;;;9.10;;
80163;SDS011;70071;55.130;61.268;2023-05-16T02:35:09;12.13;;;8.13;;
80163;SDS011;70071;55.130;61.268;2023-05-16T02:37:36;13.77;;;9.43;;
80163;SDS011;70071;55.130;61.268;2023-05-16T02:40:02;15.73;;;10.48;;
80163;SDS011;70071;55.130;61.268;2023-05-16T02:42:32;15.77;;;9.70;;
80163;SDS011;70071;55.130;61.268;2023-05-16T02:47:24;11.40;;;8.07;;
80163;SDS011;70071;55.130;61.268;2023-05-16T02:49:50;13.30;;;8.25;;
80163;SDS011;70071;55.130;61.268;2023-05-16T02:52:18;12.43;;;8.73;;
80163;SDS011;70071;55.130;61.268;2023-05-16T02:54:45;13.82;;;9.65;;
80163;SDS011;70071;55.130;61.268;2023-05-16T02:57:10;13.10;;;8.15;;
80163;SDS011;70071;55.130;61.268;2023-05-16T02:59:37;12.63;;;8.88;;
80163;SDS011;70071;55.130;61.268;2023-05-16T03:02:03;17.55;;;10.07;;
80163;SDS011;70071;55.130;61.268;2023-05-16T03:04:29;16.55;;;8.65;;
80163;SDS011;70071;55.130;61.268;2023-05-16T03:06:54;13.70;;;9.55;;
80163;SDS011;70071;55.130;61.268;2023-05-16T03:09:20;16.75;;;10.35;;
80163;SDS011;70071;55.130;61.268;2023-05-16T03:11:46;19.45;;;10.23;;
80163;SDS011;70071;55.130;61.268;2023-05-16T03:14:12;14.57;;;10.10;;
80163;SDS011;70071;55.130;61.268;2023-05-16T03:16:38;14.00;;;10.18;;
80163;SDS011;70071;55.130;61.268;2023-05-16T03:19:07;19.38;;;10.60;;
80163;SDS011;70071;55.130;61.268;2023-05-16T03:21:33;15.85;;;10.82;;
80163;SDS011;70071;55.130;61.268;2023-05-16T03:23:59;15.43;;;10.63;;
80163;SDS011;70071;55.130;61.268;2023-05-16T03:26:25;16.75;;;11.65;;
80163;SDS011;70071;55.130;61.268;2023-05-16T03:28:51;20.33;;;13.60;;
80163;SDS011;70071;55.130;61.268;2023-05-16T03:31:17;20.08;;;13.68;;
80163;SDS011;70071;55.130;61.268;2023-05-16T03:33:43;18.73;;;13.70;;
80163;SDS011;70071;55.130;61.268;2023-05-16T03:36:09;19.48;;;14.05;;
80163;SDS011;70071;55.130;61.268;2023-05-16T03:38:35;20.63;;;14.23;;
80163;SDS011;70071;55.130;61.268;2023-05-16T03:41:02;20.60;;;15.45;;
80163;SDS011;70071;55.130;61.268;2023-05-16T03:43:27;26.88;;;14.45;;
80163;SDS011;70071;55.130;61.268;2023-05-16T03:45:53;23.00;;;15.57;;
80163;SDS011;70071;55.130;61.268;2023-05-16T03:48:25;25.20;;;14.60;;
80163;SDS011;70071;55.130;61.268;2023-05-16T03:50:56;20.63;;;14.52;;
80163;SDS011;70071;55.130;61.268;2023-05-16T03:53:22;17.35;;;11.73;;
80163;SDS011;70071;55.130;61.268;2023-05-16T03:55:48;18.60;;;10.95;;
80163;SDS011;70071;55.130;61.268;2023-05-16T03:58:17;22.08;;;12.00;;
80163;SDS011;70071;55.130;61.268;2023-05-16T04:00:46;16.27;;;11.82;;
80163;SDS011;70071;55.130;61.268;2023-05-16T04:03:12;13.57;;;9.52;;
80163;SDS011;70071;55.130;61.268;2023-05-16T04:05:38;13.70;;;9.55;;
80163;SDS011;70071;55.130;61.268;2023-05-16T04:08:04;13.73;;;8.95;;
80163;SDS011;70071;55.130;61.268;2023-05-16T04:10:30;14.07;;;7.97;;
80163;SDS011;70071;55.130;61.268;2023-05-16T04:12:56;11.68;;;7.07;;
80163;SDS011;70071;55.130;61.268;2023-05-16T04:15:22;10.63;;;6.35;;
80163;SDS011;70071;55.130;61.268;2023-05-16T04:17:48;11.18;;;6.28;;
80163;SDS011;70071;55.130;61.268;2023-05-16T04:20:14;6.07;;;3.95;;
80163;SDS011;70071;55.130;61.268;2023-05-16T04:22:40;9.82;;;5.85;;
80163;SDS011;70071;55.130;61.268;2023-05-16T04:25:09;7.03;;;5.13;;
80163;SDS011;70071;55.130;61.268;2023-05-16T04:27:36;8.77;;;5.30;;
80163;SDS011;70071;55.130;61.268;2023-05-16T04:30:02;8.15;;;4.97;;
80163;SDS011;70071;55.130;61.268;2023-05-16T04:32:29;8.18;;;5.20;;
80163;SDS011;70071;55.130;61.268;2023-05-16T04:34:59;9.18;;;4.90;;
80163;SDS011;70071;55.130;61.268;2023-05-16T04:37:25;9.38;;;5.13;;
80163;SDS011;70071;55.130;61.268;2023-05-16T04:42:18;7.53;;;3.92;;
80163;SDS011;70071;55.130;61.268;2023-05-16T04:44:44;8.27;;;4.50;;
80163;SDS011;70071;55.130;61.268;2023-05-16T04:47:12;8.73;;;4.80;;
80163;SDS011;70071;55.130;61.268;2023-05-16T04:49:38;6.35;;;4.30;;
80163;SDS011;70071;55.130;61.268;2023-05-16T04:52:05;8.50;;;4.55;;
80163;SDS011;70071;55.130;61.268;2023-05-16T04:54:32;6.88;;;4.20;;
80163;SDS011;70071;55.130;61.268;2023-05-16T04:56:58;7.07;;;3.78;;
80163;SDS011;70071;55.130;61.268;2023-05-16T04:59:25;6.93;;;4.20;;
80163;SDS011;70071;55.130;61.268;2023-05-16T05:01:51;7.20;;;3.80;;
80163;SDS011;70071;55.130;61.268;2023-05-16T05:04:17;5.57;;;3.70;;
80163;SDS011;70071;55.130;61.268;2023-05-16T05:06:42;7.45;;;3.67;;
80163;SDS011;70071;55.130;61.268;2023-05-16T05:09:08;6.22;;;3.75;;
80163;SDS011;70071;55.130;61.268;2023-05-16T05:11:35;5.25;;;3.00;;
80163;SDS011;70071;55.130;61.268;2023-05-16T05:14:01;4.60;;;2.65;;
80163;SDS011;70071;55.130;61.268;2023-05-16T05:16:27;3.63;;;2.17;;
80163;SDS011;70071;55.130;61.268;2023-05-16T05:18:53;3.78;;;2.50;;
80163;SDS011;70071;55.130;61.268;2023-05-16T05:21:19;4.70;;;2.33;;
80163;SDS011;70071;55.130;61.268;2023-05-16T05:23:45;4.40;;;2.70;;
80163;SDS011;70071;55.130;61.268;2023-05-16T05:26:11;3.97;;;2.35;;
80163;SDS011;70071;55.130;61.268;2023-05-16T05:28:39;3.63;;;2.33;;
80163;SDS011;70071;55.130;61.268;2023-05-16T05:33:32;3.35;;;1.30;;
80163;SDS011;70071;55.130;61.268;2023-05-16T05:35:58;5.05;;;2.35;;
80163;SDS011;70071;55.130;61.268;2023-05-16T05:38:24;3.42;;;1.63;;
80163;SDS011;70071;55.130;61.268;2023-05-16T05:40:50;2.30;;;1.50;;
80163;SDS011;70071;55.130;61.268;2023-05-16T05:43:16;4.30;;;1.50;;
80163;SDS011;70071;55.130;61.268;2023-05-16T05:45:45;2.38;;;1.63;;
80163;SDS011;70071;55.130;61.268;2023-05-16T05:48:11;3.03;;;1.83;;
80163;SDS011;70071;55.130;61.268;2023-05-16T05:50:37;2.88;;;1.60;;
80163;SDS011;70071;55.130;61.268;2023-05-16T05:53:03;2.72;;;1.55;;
80163;SDS011;70071;55.130;61.268;2023-05-16T05:55:29;3.78;;;1.65;;
80163;SDS011;70071;55.130;61.268;2023-05-16T05:57:57;2.22;;;1.40;;
80163;SDS011;70071;55.130;61.268;2023-05-16T06:00:26;4.35;;;1.10;;
80163;SDS011;70071;55.130;61.268;2023-05-16T06:02:53;1.52;;;1.05;;
80163;SDS011;70071;55.130;61.268;2023-05-16T06:05:19;3.67;;;1.30;;
80163;SDS011;70071;55.130;61.268;2023-05-16T06:07:48;1.80;;;1.10;;
80163;SDS011;70071;55.130;61.268;2023-05-16T06:10:14;3.65;;;1.75;;
80163;SDS011;70071;55.130;61.268;2023-05-16T06:12:40;2.50;;;1.48;;
80163;SDS011;70071;55.130;61.268;2023-05-16T06:15:06;6.25;;;1.85;;
80163;SDS011;70071;55.130;61.268;2023-05-16T06:17:32;4.35;;;1.90;;
80163;SDS011;70071;55.130;61.268;2023-05-16T06:19:58;2.10;;;1.00;;
80163;SDS011;70071;55.130;61.268;2023-05-16T06:22:24;5.03;;;2.20;;
80163;SDS011;70071;55.130;61.268;2023-05-16T06:24:50;2.78;;;1.40;;
80163;SDS011;70071;55.130;61.268;2023-05-16T06:27:16;2.63;;;1.17;;
80163;SDS011;70071;55.130;61.268;2023-05-16T06:29:45;2.70;;;1.38;;
80163;SDS011;70071;55.130;61.268;2023-05-16T06:32:14;1.98;;;1.33;;
80163;SDS011;70071;55.130;61.268;2023-05-16T06:34:40;3.00;;;1.60;;
80163;SDS011;70071;55.130;61.268;2023-05-16T06:37:05;2.45;;;1.40;;
80163;SDS011;70071;55.130;61.268;2023-05-16T06:39:31;2.53;;;1.30;;
80163;SDS011;70071;55.130;61.268;2023-05-16T06:41:57;3.15;;;1.42;;
80163;SDS011;70071;55.130;61.268;2023-05-16T06:44:23;4.30;;;2.08;;
80163;SDS011;70071;55.130;61.268;2023-05-16T06:46:54;3.03;;;1.25;;
80163;SDS011;70071;55.130;61.268;2023-05-16T06:49:23;3.22;;;1.50;;
80163;SDS011;70071;55.130;61.268;2023-05-16T06:51:49;3.95;;;2.53;;
80163;SDS011;70071;55.130;61.268;2023-05-16T06:54:15;2.42;;;1.58;;
80163;SDS011;70071;55.130;61.268;2023-05-16T06:56:41;2.17;;;1.20;;
80163;SDS011;70071;55.130;61.268;2023-05-16T06:59:06;2.65;;;1.30;;
80163;SDS011;70071;55.130;61.268;2023-05-16T07:12:46;2.15;;;1.30;;
80163;SDS011;70071;55.130;61.268;2023-05-16T07:15:40;3.55;;;1.20;;
80163;SDS011;70071;55.130;61.268;2023-05-16T07:18:05;2.13;;;1.27;;
80163;SDS011;70071;55.130;61.268;2023-05-16T07:20:31;2.25;;;1.20;;
80163;SDS011;70071;55.130;61.268;2023-05-16T07:22:58;1.67;;;1.00;;
80163;SDS011;70071;55.130;61.268;2023-05-16T07:25:24;3.15;;;1.13;;
80163;SDS011;70071;55.130;61.268;2023-05-16T07:27:50;2.90;;;1.10;;
80163;SDS011;70071;55.130;61.268;2023-05-16T07:30:19;2.30;;;1.30;;
80163;SDS011;70071;55.130;61.268;2023-05-16T07:32:45;1.42;;;0.98;;
80163;SDS011;70071;55.130;61.268;2023-05-16T07:35:11;3.13;;;1.20;;
80163;SDS011;70071;55.130;61.268;2023-05-16T07:37:37;3.35;;;1.33;;
80163;SDS011;70071;55.130;61.268;2023-05-16T07:40:05;3.28;;;2.00;;
80163;SDS011;70071;55.130;61.268;2023-05-16T07:42:32;2.83;;;1.30;;
80163;SDS011;70071;55.130;61.268;2023-05-16T07:44:58;1.83;;;1.13;;
80163;SDS011;70071;55.130;61.268;2023-05-16T07:47:23;2.58;;;1.10;;
80163;SDS011;70071;55.130;61.268;2023-05-16T07:49:49;3.60;;;1.20;;
80163;SDS011;70071;55.130;61.268;2023-05-16T07:52:15;4.10;;;1.00;;
80163;SDS011;70071;55.130;61.268;2023-05-16T07:54:41;1.15;;;0.70;;
80163;SDS011;70071;55.130;61.268;2023-05-16T07:57:07;1.50;;;0.98;;
80163;SDS011;70071;55.130;61.268;2023-05-16T07:59:33;2.53;;;1.10;;
80163;SDS011;70071;55.130;61.268;2023-05-16T08:01:59;3.20;;;1.15;;
80163;SDS011;70071;55.130;61.268;2023-05-16T08:04:25;1.90;;;1.10;;
80163;SDS011;70071;55.130;61.268;2023-05-16T08:06:51;1.90;;;1.10;;
80163;SDS011;70071;55.130;61.268;2023-05-16T08:09:16;1.92;;;1.17;;
80163;SDS011;70071;55.130;61.268;2023-05-16T08:11:43;2.85;;;1.23;;
80163;SDS011;70071;55.130;61.268;2023-05-16T08:14:10;2.13;;;0.88;;
80163;SDS011;70071;55.130;61.268;2023-05-16T08:16:36;2.55;;;1.00;;
80163;SDS011;70071;55.130;61.268;2023-05-16T08:19:02;3.08;;;1.25;;
80163;SDS011;70071;55.130;61.268;2023-05-16T08:21:27;1.55;;;0.80;;
80163;SDS011;70071;55.130;61.268;2023-05-16T08:23:54;2.20;;;1.00;;
80163;SDS011;70071;55.130;61.268;2023-05-16T08:26:20;1.88;;;1.00;;
80163;SDS011;70071;55.130;61.268;2023-05-16T08:28:46;2.08;;;1.10;;
80163;SDS011;70071;55.130;61.268;2023-05-16T08:31:12;1.85;;;1.00;;
80163;SDS011;70071;55.130;61.268;2023-05-16T08:33:37;2.10;;;1.15;;
80163;SDS011;70071;55.130;61.268;2023-05-16T08:36:03;1.98;;;1.20;;
80163;SDS011;70071;55.130;61.268;2023-05-16T08:38:30;1.67;;;0.98;;
80163;SDS011;70071;55.130;61.268;2023-05-16T08:40:56;2.30;;;1.40;;
80163;SDS011;70071;55.130;61.268;2023-05-16T08:43:22;1.95;;;1.17;;
80163;SDS011;70071;55.130;61.268;2023-05-16T08:45:48;3.13;;;1.52;;
80163;SDS011;70071;55.130;61.268;2023-05-16T08:50:41;1.50;;;0.70;;
80163;SDS011;70071;55.130;61.268;2023-05-16T08:53:08;2.05;;;1.17;;
80163;SDS011;70071;55.130;61.268;2023-05-16T08:55:36;1.75;;;0.90;;
80163;SDS011;70071;55.130;61.268;2023-05-16T08:58:03;2.35;;;1.13;;
80163;SDS011;70071;55.130;61.268;2023-05-16T09:00:29;3.13;;;1.27;;
80163;SDS011;70071;55.130;61.268;2023-05-16T09:02:55;3.38;;;1.27;;
80163;SDS011;70071;55.130;61.268;2023-05-16T09:05:22;2.42;;;1.15;;
80163;SDS011;70071;55.130;61.268;2023-05-16T09:10:14;3.15;;;1.25;;
80163;SDS011;70071;55.130;61.268;2023-05-16T09:12:40;2.00;;;1.10;;
80163;SDS011;70071;55.130;61.268;2023-05-16T09:15:07;3.67;;;1.35;;
80163;SDS011;70071;55.130;61.268;2023-05-16T09:17:38;2.95;;;1.52;;
80163;SDS011;70071;55.130;61.268;2023-05-16T09:20:15;1.92;;;0.90;;
80163;SDS011;70071;55.130;61.268;2023-05-16T09:22:50;2.78;;;1.17;;
80163;SDS011;70071;55.130;61.268;2023-05-16T09:25:20;2.88;;;1.27;;
80163;SDS011;70071;55.130;61.268;2023-05-16T09:27:51;4.85;;;1.63;;
80163;SDS011;70071;55.130;61.268;2023-05-16T09:30:20;2.35;;;1.50;;
80163;SDS011;70071;55.130;61.268;2023-05-16T09:32:50;4.30;;;1.30;;
80163;SDS011;70071;55.130;61.268;2023-05-16T09:35:18;2.65;;;1.25;;
80163;SDS011;70071;55.130;61.268;2023-05-16T09:37:48;3.60;;;1.52;;
80163;SDS011;70071;55.130;61.268;2023-05-16T09:40:21;3.47;;;1.48;;
80163;SDS011;70071;55.130;61.268;2023-05-16T09:43:00;3.28;;;1.60;;
80163;SDS011;70071;55.130;61.268;2023-05-16T09:45:31;3.50;;;1.20;;
80163;SDS011;70071;55.130;61.268;2023-05-16T09:50:36;2.63;;;1.15;;
80163;SDS011;70071;55.130;61.268;2023-05-16T09:53:02;2.75;;;1.17;;
80163;SDS011;70071;55.130;61.268;2023-05-16T09:55:29;2.70;;;1.27;;
80163;SDS011;70071;55.130;61.268;2023-05-16T09:57:55;4.25;;;1.45;;
80163;SDS011;70071;55.130;61.268;2023-05-16T10:02:46;3.40;;;1.75;;
80163;SDS011;70071;55.130;61.268;2023-05-16T10:05:15;2.92;;;1.38;;
80163;SDS011;70071;55.130;61.268;2023-05-16T10:07:41;2.20;;;1.13;;
80163;SDS011;70071;55.130;61.268;2023-05-16T10:10:09;3.60;;;1.08;;
80163;SDS011;70071;55.130;61.268;2023-05-16T10:12:36;2.92;;;1.02;;
80163;SDS011;70071;55.130;61.268;2023-05-16T10:15:03;3.95;;;1.50;;
80163;SDS011;70071;55.130;61.268;2023-05-16T10:17:35;3.17;;;1.00;;
80163;SDS011;70071;55.130;61.268;2023-05-16T10:20:05;5.22;;;1.23;;
80163;SDS011;70071;55.130;61.268;2023-05-16T10:22:35;3.15;;;1.20;;
80163;SDS011;70071;55.130;61.268;2023-05-16T10:25:16;3.28;;;1.75;;
80163;SDS011;70071;55.130;61.268;2023-05-16T10:28:04;4.45;;;1.33;;
80163;SDS011;70071;55.130;61.268;2023-05-16T10:30:32;1.90;;;1.25;;
80163;SDS011;70071;55.130;61.268;2023-05-16T10:33:00;3.78;;;1.50;;
80163;SDS011;70071;55.130;61.268;2023-05-16T10:35:28;3.70;;;1.73;;
80163;SDS011;70071;55.130;61.268;2023-05-16T10:37:55;2.15;;;1.45;;
80163;SDS011;70071;55.130;61.268;2023-05-16T10:43:58;2.40;;;1.50;;
80163;SDS011;70071;55.130;61.268;2023-05-16T10:46:48;2.22;;;1.40;;
80163;SDS011;70071;55.130;61.268;2023-05-16T10:49:39;4.03;;;1.48;;
80163;SDS011;70071;55.130;61.268;2023-05-16T10:52:09;3.15;;;2.20;;
80163;SDS011;70071;55.130;61.268;2023-05-16T10:54:42;2.45;;;1.48;;
80163;SDS011;70071;55.130;61.268;2023-05-16T10:57:10;3.55;;;1.52;;
80163;SDS011;70071;55.130;61.268;2023-05-16T10:59:45;2.85;;;1.50;;
80163;SDS011;70071;55.130;61.268;2023-05-16T11:02:22;2.47;;;1.58;;
80163;SDS011;70071;55.130;61.268;2023-05-16T11:05:00;2.65;;;1.48;;
80163;SDS011;70071;55.130;61.268;2023-05-16T11:07:33;2.65;;;1.33;;
80163;SDS011;70071;55.130;61.268;2023-05-16T11:10:03;3.38;;;1.60;;
80163;SDS011;70071;55.130;61.268;2023-05-16T11:15:20;3.47;;;1.80;;
80163;SDS011;70071;55.130;61.268;2023-05-16T11:18:04;3.35;;;1.50;;
80163;SDS011;70071;55.130;61.268;2023-05-16T11:20:44;3.05;;;1.45;;
80163;SDS011;70071;55.130;61.268;2023-05-16T11:25:50;2.53;;;1.60;;
80163;SDS011;70071;55.130;61.268;2023-05-16T11:28:26;2.35;;;1.58;;
80163;SDS011;70071;55.130;61.268;2023-05-16T11:30:53;3.17;;;1.70;;
80163;SDS011;70071;55.130;61.268;2023-05-16T11:33:43;2.55;;;1.60;;
80163;SDS011;70071;55.130;61.268;2023-05-16T11:36:13;3.13;;;1.65;;
80163;SDS011;70071;55.130;61.268;2023-05-16T11:38:53;5.53;;;1.98;;
80163;SDS011;70071;55.130;61.268;2023-05-16T11:41:31;2.75;;;1.63;;
80163;SDS011;70071;55.130;61.268;2023-05-16T11:43:58;3.30;;;1.92;;
80163;SDS011;70071;55.130;61.268;2023-05-16T11:46:27;5.38;;;2.28;;
80163;SDS011;70071;55.130;61.268;2023-05-16T11:48:53;4.15;;;2.38;;
80163;SDS011;70071;55.130;61.268;2023-05-16T11:51:19;4.38;;;1.95;;
80163;SDS011;70071;55.130;61.268;2023-05-16T11:53:48;4.57;;;2.25;;
80163;SDS011;70071;55.130;61.268;2023-05-16T11:56:14;2.58;;;1.60;;
80163;SDS011;70071;55.130;61.268;2023-05-16T11:58:41;3.55;;;1.67;;
80163;SDS011;70071;55.130;61.268;2023-05-16T12:01:10;3.08;;;2.28;;
80163;SDS011;70071;55.130;61.268;2023-05-16T12:03:35;3.13;;;2.05;;
80163;SDS011;70071;55.130;61.268;2023-05-16T12:06:03;3.65;;;1.90;;
80163;SDS011;70071;55.130;61.268;2023-05-16T12:08:29;8.82;;;2.45;;
80163;SDS011;70071;55.130;61.268;2023-05-16T12:10:55;3.10;;;2.00;;
80163;SDS011;70071;55.130;61.268;2023-05-16T12:13:21;3.53;;;2.03;;
80163;SDS011;70071;55.130;61.268;2023-05-16T12:15:51;3.65;;;2.00;;
80163;SDS011;70071;55.130;61.268;2023-05-16T12:18:17;3.25;;;1.90;;
80163;SDS011;70071;55.130;61.268;2023-05-16T12:20:47;4.28;;;2.78;;
80163;SDS011;70071;55.130;61.268;2023-05-16T12:23:14;4.70;;;3.05;;
80163;SDS011;70071;55.130;61.268;2023-05-16T12:26:25;5.70;;;3.60;;
80163;SDS011;70071;55.130;61.268;2023-05-16T12:28:58;4.22;;;3.10;;
80163;SDS011;70071;55.130;61.268;2023-05-16T12:31:27;5.07;;;2.85;;
80163;SDS011;70071;55.130;61.268;2023-05-16T12:33:59;5.47;;;3.13;;
80163;SDS011;70071;55.130;61.268;2023-05-16T12:37:01;6.20;;;3.90;;
80163;SDS011;70071;55.130;61.268;2023-05-16T12:39:35;6.03;;;4.20;;
80163;SDS011;70071;55.130;61.268;2023-05-16T12:42:05;7.25;;;4.85;;
80163;SDS011;70071;55.130;61.268;2023-05-16T12:44:33;6.00;;;5.15;;
80163;SDS011;70071;55.130;61.268;2023-05-16T12:47:00;5.68;;;4.90;;
80163;SDS011;70071;55.130;61.268;2023-05-16T12:49:26;8.35;;;5.35;;
80163;SDS011;70071;55.130;61.268;2023-05-16T12:51:53;8.27;;;5.20;;
80163;SDS011;70071;55.130;61.268;2023-05-16T12:54:20;8.65;;;5.70;;
80163;SDS011;70071;55.130;61.268;2023-05-16T12:56:49;8.05;;;5.63;;
80163;SDS011;70071;55.130;61.268;2023-05-16T12:59:15;11.55;;;6.25;;
80163;SDS011;70071;55.130;61.268;2023-05-16T13:01:43;7.72;;;6.18;;
80163;SDS011;70071;55.130;61.268;2023-05-16T13:04:10;10.13;;;7.35;;
80163;SDS011;70071;55.130;61.268;2023-05-16T13:06:40;9.13;;;6.68;;
80163;SDS011;70071;55.130;61.268;2023-05-16T13:09:06;11.50;;;7.32;;
80163;SDS011;70071;55.130;61.268;2023-05-16T13:11:32;9.45;;;7.63;;
80163;SDS011;70071;55.130;61.268;2023-05-16T13:13:58;10.32;;;7.40;;
80163;SDS011;70071;55.130;61.268;2023-05-16T13:16:24;13.23;;;8.80;;
80163;SDS011;70071;55.130;61.268;2023-05-16T13:18:49;10.18;;;8.50;;
80163;SDS011;70071;55.130;61.268;2023-05-16T13:21:16;11.90;;;8.43;;
80163;SDS011;70071;55.130;61.268;2023-05-16T13:23:42;12.25;;;7.88;;
80163;SDS011;70071;55.130;61.268;2023-05-16T13:26:07;10.38;;;8.48;;
80163;SDS011;70071;55.130;61.268;2023-05-16T13:28:33;10.63;;;8.85;;
80163;SDS011;70071;55.130;61.268;2023-05-16T13:31:00;11.57;;;8.52;;
80163;SDS011;70071;55.130;61.268;2023-05-16T13:33:26;9.70;;;8.70;;
80163;SDS011;70071;55.130;61.268;2023-05-16T13:35:52;9.80;;;8.80;;
80163;SDS011;70071;55.130;61.268;2023-05-16T13:38:19;11.65;;;8.85;;
80163;SDS011;70071;55.130;61.268;2023-05-16T13:40:45;12.35;;;9.02;;
80163;SDS011;70071;55.130;61.268;2023-05-16T13:43:10;11.50;;;9.05;;
80163;SDS011;70071;55.130;61.268;2023-05-16T13:45:38;10.90;;;8.27;;
80163;SDS011;70071;55.130;61.268;2023-05-16T13:48:04;11.73;;;9.60;;
80163;SDS011;70071;55.130;61.268;2023-05-16T13:50:31;12.07;;;9.15;;
80163;SDS011;70071;55.130;61.268;2023-05-16T13:52:57;10.55;;;8.77;;
80163;SDS011;70071;55.130;61.268;2023-05-16T13:55:23;12.23;;;9.63;;
80163;SDS011;70071;55.130;61.268;2023-05-16T13:57:48;12.30;;;9.40;;
80163;SDS011;70071;55.130;61.268;2023-05-16T14:00:14;10.52;;;9.13;;
80163;SDS011;70071;55.130;61.268;2023-05-16T14:02:40;10.15;;;8.80;;
80163;SDS011;70071;55.130;61.268;2023-05-16T14:05:07;13.77;;;8.88;;
80163;SDS011;70071;55.130;61.268;2023-05-16T14:07:33;9.95;;;8.52;;
80163;SDS011;70071;55.130;61.268;2023-05-16T14:10:00;12.75;;;9.05;;
80163;SDS011;70071;55.130;61.268;2023-05-16T14:12:26;10.90;;;8.07;;
80163;SDS011;70071;55.130;61.268;2023-05-16T14:14:52;11.18;;;8.13;;
80163;SDS011;70071;55.130;61.268;2023-05-16T14:17:19;10.52;;;7.70;;
80163;SDS011;70071;55.130;61.268;2023-05-16T14:19:45;12.02;;;7.43;;
80163;SDS011;70071;55.130;61.268;2023-05-16T14:22:10;9.82;;;7.85;;
80163;SDS011;70071;55.130;61.268;2023-05-16T14:24:36;9.38;;;7.97;;
80163;SDS011;70071;55.130;61.268;2023-05-16T14:27:02;11.02;;;7.93;;
80163;SDS011;70071;55.130;61.268;2023-05-16T14:29:28;9.98;;;8.25;;
80163;SDS011;70071;55.130;61.268;2023-05-16T14:31:54;10.02;;;7.30;;
80163;SDS011;70071;55.130;61.268;2023-05-16T14:34:20;9.68;;;7.53;;
80163;SDS011;70071;55.130;61.268;2023-05-16T14:36:46;12.63;;;7.53;;
80163;SDS011;70071;55.130;61.268;2023-05-16T14:39:12;9.00;;;6.25;;
80163;SDS011;70071;55.130;61.268;2023-05-16T14:41:38;12.02;;;7.22;;
80163;SDS011;70071;55.130;61.268;2023-05-16T14:44:04;9.75;;;7.45;;
80163;SDS011;70071;55.130;61.268;2023-05-16T14:46:30;9.60;;;8.05;;
80163;SDS011;70071;55.130;61.268;2023-05-16T14:48:55;10.88;;;6.97;;
80163;SDS011;70071;55.130;61.268;2023-05-16T14:51:21;10.52;;;8.35;;
80163;SDS011;70071;55.130;61.268;2023-05-16T14:53:47;12.63;;;8.15;;
80163;SDS011;70071;55.130;61.268;2023-05-16T14:56:13;10.18;;;7.80;;
80163;SDS011;70071;55.130;61.268;2023-05-16T14:58:40;13.30;;;8.25;;
80163;SDS011;70071;55.130;61.268;2023-05-16T15:01:05;12.85;;;9.15;;
80163;SDS011;70071;55.130;61.268;2023-05-16T15:03:31;14.20;;;9.02;;
80163;SDS011;70071;55.130;61.268;2023-05-16T15:05:57;13.20;;;9.57;;
80163;SDS011;70071;55.130;61.268;2023-05-16T15:08:23;15.63;;;11.65;;
80163;SDS011;70071;55.130;61.268;2023-05-16T15:10:49;18.35;;;12.85;;
80163;SDS011;70071;55.130;61.268;2023-05-16T15:13:15;18.60;;;13.45;;
80163;SDS011;70071;55.130;61.268;2023-05-16T15:20:58;20.13;;;13.80;;
80163;SDS011;70071;55.130;61.268;2023-05-16T15:23:24;18.98;;;15.32;;
80163;SDS011;70071;55.130;61.268;2023-05-16T15:26:16;22.15;;;14.38;;
80163;SDS011;70071;55.130;61.268;2023-05-16T15:28:55;21.08;;;14.40;;
80163;SDS011;70071;55.130;61.268;2023-05-16T15:31:22;21.20;;;14.43;;